Overview Statistics Trail Chart Weather Telemetry Raw packets
 

This is the latest recevied weather packets stored in our database for station/object GW4003. If no packets are shown the sender has not sent any weather packets the latest 10 day(s).

<< 59 60 61 62 63 64 65 >>
Time Temp. Humidity Pressure Rain* Wind** Luminosity Snow
1788230738 19.44° C 72% 1023.8 hPa 1.02 mm - - -
1788230434 19.44° C 71% 1023.7 hPa 0.76 mm - - -
1788230130 20° C 69% 1023.4 hPa 0.76 mm - - -
1788229827 20.56° C 66% 1023.4 hPa 0.76 mm - - -
1788229523 21.11° C 63% 1023 hPa 0.76 mm - - -
1788229219 21.67° C 61% 1022.1 hPa 0.25 mm - - -
1788228916 22.78° C 54% 1021.9 hPa 0 mm - - -
1788228612 22.78° C 49% 1022 hPa 0 mm - - -
1788228309 23.33° C 51% 1021.5 hPa 0 mm - - -
1788228005 23.33° C 50% 1021.3 hPa 0 mm - - -
1788227701 22.78° C 50% 1020.7 hPa 0 mm - - -
1788227397 22.78° C 50% 1020.4 hPa 0 mm - - -
1788227093 22.78° C 51% 1020.3 hPa 0 mm - - -
1788226790 22.22° C 50% 1020.1 hPa 0 mm - - -
1788226485 22.22° C 53% 1020.2 hPa 0 mm - - -
1788226184 22.22° C 54% 1020.2 hPa 0 mm - - -
1788225881 22.22° C 55% 1020.2 hPa 0 mm - - -
1788225577 22.78° C 55% 1020.1 hPa 0 mm - - -
1788225274 23.33° C 53% 1020.1 hPa 0 mm - - -
1788224970 24.44° C 46% 1020.3 hPa 0 mm - - -
1788224666 25.56° C 42% 1020.1 hPa 0 mm - - -
1788224363 26.67° C 37% 1020.3 hPa 0 mm - - -
1788224059 27.78° C 32% 1020.1 hPa 0 mm - - -
1788223755 27.78° C 31% 1019.8 hPa 0 mm - - -
1788223451 27.78° C 31% 1019.6 hPa 0 mm - - -

* Rain latest hour (hover to see other rain measurements)
** Current wind speed in m/s (hover to see current wind gust speed)